Time;durP1;ratioP1;P1;durP2;ratioP2;P2;SDS_P1;SDS_P2;PMS_P1;PMS_P2;Temp;Humidity;BMP_temperature;BMP_pressure;BME280_temperature;BME280_humidity;BME280_pressure;Samples;Min_cycle;Max_cycle;Signal;HPM_P1;HPM_P2
2023/03/28 00:00:43;;;;;;;;;;;;;;;1.76;68.47;98540.78;5086360;28;19930;-56
2023/03/28 00:03:13;;;;;;;;;;;;;;;1.74;68.78;98543.69;5102703;28;19924;-57
2023/03/28 00:05:41;;;;;;;;;;;;;;;1.63;68.81;98551.75;5089346;28;19977;-58
2023/03/28 00:08:10;;;;;;;;;;;;;;;1.69;68.63;98548.94;5090342;28;19974;-55
2023/03/28 00:10:38;;;;;;;;;;;;;;;1.58;69.06;98558.63;5090684;28;19928;-56
2023/03/28 00:13:06;;;;;;;;;;;;;;;1.52;69.31;98558.78;5090179;28;19932;-55
2023/03/28 00:15:35;;;;;;;;;;;;;;;1.53;69.16;98558.53;5087272;28;19924;-56
2023/03/28 00:18:05;;;;;;;;;;;;;;;1.63;69.36;98565.97;5089083;28;20372;-55
2023/03/28 00:20:37;;;;;;;;;;;;;;;1.51;68.39;98562.50;5088750;28;19928;-55
2023/03/28 00:23:06;;;;;;;;;;;;;;;1.46;68.87;98571.25;5086778;28;19946;-56
2023/03/28 00:25:35;;;;;;;;;;;;;;;1.54;68.41;98573.53;5080241;28;19931;-57
2023/03/28 00:28:03;;;;;;;;;;;;;;;1.54;69.11;98578.09;5087954;28;19977;-55
2023/03/28 00:30:31;;;;;;;;;;;;;;;1.49;68.47;98575.31;5083596;28;19927;-56
2023/03/28 00:32:58;;;;;;;;;;;;;;;1.43;68.60;98581.59;5089724;28;20015;-55
2023/03/28 00:35:28;;;;;;;;;;;;;;;1.38;68.88;98585.00;5079530;28;19929;-56
2023/03/28 00:37:56;;;;;;;;;;;;;;;1.35;68.22;98585.47;5084718;28;19931;-56
2023/03/28 00:40:25;;;;;;;;;;;;;;;1.31;68.66;98578.97;5094134;28;19924;-55
2023/03/28 00:42:55;;;;;;;;;;;;;;;1.33;68.23;98586.75;5087806;28;19956;-55
2023/03/28 00:45:23;;;;;;;;;;;;;;;1.31;68.66;98593.16;5081613;28;19932;-56
2023/03/28 00:47:51;;;;;;;;;;;;;;;1.34;68.71;98591.88;5088854;28;20336;-56
2023/03/28 00:50:20;;;;;;;;;;;;;;;1.34;68.74;98599.09;5085811;28;19931;-55
2023/03/28 00:52:51;;;;;;;;;;;;;;;1.29;68.41;98600.63;5086690;28;19998;-57
2023/03/28 00:55:19;;;;;;;;;;;;;;;1.36;68.89;98597.00;5089823;28;20361;-57
2023/03/28 00:57:47;;;;;;;;;;;;;;;1.30;69.07;98598.75;5089275;28;19932;-56
2023/03/28 01:00:17;;;;;;;;;;;;;;;1.31;69.14;98601.19;5100277;28;20335;-56
2023/03/28 01:02:49;;;;;;;;;;;;;;;1.27;68.93;98616.06;5087586;28;19928;-60
2023/03/28 01:05:18;;;;;;;;;;;;;;;1.20;69.43;98604.69;5088022;28;19973;-55
2023/03/28 01:07:46;;;;;;;;;;;;;;;1.18;69.30;98608.66;5088026;28;19928;-55
2023/03/28 01:10:20;;;;;;;;;;;;;;;1.26;69.44;98597.59;5106066;28;19939;-56
2023/03/28 01:12:50;;;;;;;;;;;;;;;1.21;69.22;98597.47;5088925;28;19928;-56
2023/03/28 01:15:19;;;;;;;;;;;;;;;1.11;69.50;98605.25;5082113;28;19928;-55
2023/03/28 01:17:52;;;;;;;;;;;;;;;1.13;69.76;98605.88;5087300;28;19924;-56
2023/03/28 01:20:26;;;;;;;;;;;;;;;1.04;70.11;98606.19;5090058;28;19928;-56
2023/03/28 01:23:02;;;;;;;;;;;;;;;1.07;70.02;98602.25;5087021;28;19998;-56
2023/03/28 01:25:43;;;;;;;;;;;;;;;1.08;70.26;98617.25;5089251;28;19928;-57
2023/03/28 01:28:15;;;;;;;;;;;;;;;1.03;70.70;98619.81;5106565;28;19928;-56
2023/03/28 01:31:00;;;;;;;;;;;;;;;1.02;70.47;98613.66;5088409;28;19932;-56
2023/03/28 01:34:23;;;;;;;;;;;;;;;1.12;70.45;98617.59;5086710;28;19925;-59
2023/03/28 01:36:57;;;;;;;;;;;;;;;1.14;70.35;98610.97;5083081;28;19931;-55
2023/03/28 01:39:30;;;;;;;;;;;;;;;1.05;70.23;98615.84;5093225;28;19977;-55
2023/03/28 01:41:59;;;;;;;;;;;;;;;1.08;70.27;98619.94;5094210;28;20339;-56
2023/03/28 01:44:29;;;;;;;;;;;;;;;1.02;70.17;98616.34;5094027;28;19954;-55
2023/03/28 01:46:59;;;;;;;;;;;;;;;1.13;70.60;98624.59;5089808;28;19928;-56
2023/03/28 01:49:30;;;;;;;;;;;;;;;1.11;70.19;98630.16;5082008;28;19929;-61
2023/03/28 01:52:00;;;;;;;;;;;;;;;1.10;70.25;98625.06;5086178;28;19928;-56
2023/03/28 01:54:29;;;;;;;;;;;;;;;1.10;70.51;98633.06;5088470;28;19951;-55
2023/03/28 01:57:00;;;;;;;;;;;;;;;1.01;70.88;98628.09;5088760;28;19932;-56
2023/03/28 01:59:37;;;;;;;;;;;;;;;1.04;70.76;98632.97;5101396;28;19924;-55
2023/03/28 02:02:27;;;;;;;;;;;;;;;1.05;70.63;98633.78;5067697;28;19931;-56
2023/03/28 02:05:00;;;;;;;;;;;;;;;1.03;70.90;98631.34;5092638;28;19924;-55
2023/03/28 02:07:30;;;;;;;;;;;;;;;1.04;70.42;98632.97;5089175;28;19936;-59
2023/03/28 02:10:10;;;;;;;;;;;;;;;1.04;70.89;98632.16;5110206;28;19928;-55
2023/03/28 02:13:04;;;;;;;;;;;;;;;0.92;70.99;98629.47;5093544;28;19927;-55
2023/03/28 02:15:59;;;;;;;;;;;;;;;0.96;71.27;98630.66;5087985;28;19932;-56
2023/03/28 02:18:56;;;;;;;;;;;;;;;0.94;71.05;98635.38;5104559;28;19931;-55
2023/03/28 02:21:51;;;;;;;;;;;;;;;0.91;71.37;98635.06;5085906;28;19928;-56
2023/03/28 02:24:49;;;;;;;;;;;;;;;0.85;71.31;98627.94;5080183;28;19924;-55
2023/03/28 02:27:39;;;;;;;;;;;;;;;0.86;71.72;98630.41;5088338;28;20018;-56
2023/03/28 02:30:22;;;;;;;;;;;;;;;0.87;71.60;98634.69;5084872;28;19924;-55
2023/03/28 02:32:57;;;;;;;;;;;;;;;0.78;71.76;98638.75;5092537;28;19931;-57
2023/03/28 02:35:27;;;;;;;;;;;;;;;0.86;71.90;98632.25;5089513;28;20385;-55
2023/03/28 02:37:55;;;;;;;;;;;;;;;0.94;71.83;98642.59;5091295;28;19973;-55
2023/03/28 02:40:31;;;;;;;;;;;;;;;0.86;71.88;98641.09;5090850;28;19928;-57
2023/03/28 02:43:13;;;;;;;;;;;;;;;0.87;71.65;98637.38;5090821;28;19924;-55
2023/03/28 02:45:54;;;;;;;;;;;;;;;0.87;72.01;98648.06;5081890;28;20293;-55
2023/03/28 02:48:27;;;;;;;;;;;;;;;0.87;71.77;98639.22;5088907;28;19936;-56
2023/03/28 02:50:59;;;;;;;;;;;;;;;0.90;71.66;98650.25;5086625;28;19924;-56
2023/03/28 02:53:31;;;;;;;;;;;;;;;0.84;71.83;98653.88;5100541;28;19931;-55
2023/03/28 02:56:04;;;;;;;;;;;;;;;0.81;72.14;98659.69;5091158;28;19955;-56
2023/03/28 02:58:52;;;;;;;;;;;;;;;0.83;72.42;98665.63;5091271;28;19931;-56
2023/03/28 03:01:20;;;;;;;;;;;;;;;0.77;72.18;98653.97;5069727;28;20284;-55
2023/03/28 03:03:48;;;;;;;;;;;;;;;0.75;72.25;98655.28;5090616;28;19931;-55
2023/03/28 03:06:16;;;;;;;;;;;;;;;0.67;72.80;98660.94;5097307;28;19980;-59
2023/03/28 03:08:45;;;;;;;;;;;;;;;0.64;72.71;98664.88;5099235;28;19924;-55
2023/03/28 03:11:14;;;;;;;;;;;;;;;0.63;72.60;98657.06;5093111;28;20282;-55
2023/03/28 03:13:42;;;;;;;;;;;;;;;0.70;72.74;98663.16;5088261;28;19930;-55
2023/03/28 03:16:12;;;;;;;;;;;;;;;0.68;72.73;98665.22;5084502;28;19978;-55
2023/03/28 03:18:40;;;;;;;;;;;;;;;0.77;72.32;98661.19;5089616;28;20015;-55
2023/03/28 03:21:08;;;;;;;;;;;;;;;0.70;72.40;98665.84;5090975;28;19924;-59
2023/03/28 03:23:36;;;;;;;;;;;;;;;0.68;72.86;98670.56;5089647;28;19935;-55
2023/03/28 03:26:05;;;;;;;;;;;;;;;0.64;72.36;98667.56;5090167;28;19924;-55
2023/03/28 03:28:41;;;;;;;;;;;;;;;0.67;72.72;98672.44;5080624;28;20416;-55
2023/03/28 03:31:12;;;;;;;;;;;;;;;0.64;72.31;98667.56;5081721;28;19935;-55
2023/03/28 03:34:03;;;;;;;;;;;;;;;0.72;72.47;98661.88;5083894;28;20297;-55
2023/03/28 03:36:39;;;;;;;;;;;;;;;0.65;72.29;98665.72;5090395;28;19923;-57
2023/03/28 03:39:10;;;;;;;;;;;;;;;0.59;72.23;98680.00;5091098;28;19939;-56
2023/03/28 03:41:37;;;;;;;;;;;;;;;0.55;72.34;98684.16;5091832;28;19955;-55
2023/03/28 03:44:07;;;;;;;;;;;;;;;0.50;72.75;98688.31;5085563;28;19947;-57
2023/03/28 03:46:36;;;;;;;;;;;;;;;0.50;72.36;98682.16;5095324;27;19930;-56
2023/03/28 03:49:04;;;;;;;;;;;;;;;0.50;72.16;98685.66;5088476;28;19993;-56
2023/03/28 03:51:33;;;;;;;;;;;;;;;0.38;73.06;98690.13;5088710;28;19970;-56
2023/03/28 03:54:03;;;;;;;;;;;;;;;0.46;72.93;98686.31;5087374;28;19959;-58
2023/03/28 03:56:35;;;;;;;;;;;;;;;0.45;72.90;98693.53;5084822;28;19924;-56
2023/03/28 03:59:04;;;;;;;;;;;;;;;0.53;72.40;98700.41;5089587;28;19928;-57
2023/03/28 04:01:38;;;;;;;;;;;;;;;0.46;72.75;98689.81;5084554;28;19939;-55
2023/03/28 04:04:18;;;;;;;;;;;;;;;0.58;72.39;98692.50;5087633;28;20022;-55
2023/03/28 04:07:04;;;;;;;;;;;;;;;0.42;72.93;98693.97;5087891;28;19928;-56
2023/03/28 04:09:33;;;;;;;;;;;;;;;0.59;72.38;98699.53;5091337;28;19928;-55
2023/03/28 04:12:03;;;;;;;;;;;;;;;0.53;72.71;98692.38;5108450;28;19966;-55
2023/03/28 04:14:44;;;;;;;;;;;;;;;0.59;72.09;98683.47;5078713;28;19929;-55
2023/03/28 04:17:33;;;;;;;;;;;;;;;0.56;72.17;98686.59;5086387;28;19935;-56
2023/03/28 04:20:10;;;;;;;;;;;;;;;0.57;71.97;98690.88;5093676;28;19935;-57
2023/03/28 04:22:55;;;;;;;;;;;;;;;0.57;72.51;98700.78;5089920;28;19975;-64
2023/03/28 04:25:24;;;;;;;;;;;;;;;0.58;72.30;98694.38;5089763;28;22016;-57
2023/03/28 04:27:53;;;;;;;;;;;;;;;0.49;72.07;98694.72;5088264;28;20385;-56
2023/03/28 04:30:24;;;;;;;;;;;;;;;0.52;72.31;98696.09;5079301;28;19943;-57
2023/03/28 04:33:12;;;;;;;;;;;;;;;0.64;72.06;98696.13;5089421;28;19935;-56
2023/03/28 04:35:41;;;;;;;;;;;;;;;0.63;71.77;98705.22;5086635;28;20276;-55
2023/03/28 04:38:09;;;;;;;;;;;;;;;0.58;72.05;98705.06;5082889;28;20266;-56
2023/03/28 04:40:38;;;;;;;;;;;;;;;0.52;71.76;98710.28;5090558;28;19931;-56
2023/03/28 04:43:30;;;;;;;;;;;;;;;0.48;72.10;98708.28;5090438;28;19924;-57
2023/03/28 04:45:58;;;;;;;;;;;;;;;0.52;71.52;98715.63;5082084;28;20293;-56
2023/03/28 04:48:30;;;;;;;;;;;;;;;0.54;71.71;98723.44;5088699;28;19975;-64
2023/03/28 04:50:58;;;;;;;;;;;;;;;0.65;71.60;98713.84;5089189;28;19939;-57
2023/03/28 04:53:25;;;;;;;;;;;;;;;0.68;71.20;98724.06;5091511;28;20377;-57
2023/03/28 04:56:13;;;;;;;;;;;;;;;0.75;70.90;98716.78;5087795;28;19970;-57
2023/03/28 04:58:41;;;;;;;;;;;;;;;0.66;70.94;98721.63;5087323;28;19942;-56
2023/03/28 05:01:10;;;;;;;;;;;;;;;0.62;71.35;98720.44;5082396;28;19930;-57
2023/03/28 05:04:14;;;;;;;;;;;;;;;0.72;70.79;98730.59;5080219;28;20010;-57
2023/03/28 05:06:44;;;;;;;;;;;;;;;0.70;70.69;98732.69;5086143;28;19935;-57
2023/03/28 05:09:14;;;;;;;;;;;;;;;0.76;70.50;98732.59;5084752;28;19931;-57
2023/03/28 05:11:42;;;;;;;;;;;;;;;0.70;70.63;98727.34;5086301;28;20342;-57
2023/03/28 05:14:10;;;;;;;;;;;;;;;0.68;70.46;98734.75;5086332;28;20002;-57
2023/03/28 05:16:45;;;;;;;;;;;;;;;0.78;70.29;98741.19;5081070;28;19935;-58
2023/03/28 05:19:32;;;;;;;;;;;;;;;0.81;70.12;98739.13;5079784;28;19931;-58
2023/03/28 05:22:11;;;;;;;;;;;;;;;0.83;69.99;98743.19;5097929;28;19932;-57
2023/03/28 05:24:42;;;;;;;;;;;;;;;0.83;69.92;98745.06;5089391;28;19928;-57
2023/03/28 05:27:17;;;;;;;;;;;;;;;0.86;69.91;98752.63;5087448;28;19932;-57
2023/03/28 05:29:46;;;;;;;;;;;;;;;0.92;69.50;98746.38;5083118;28;19936;-57
2023/03/28 05:32:16;;;;;;;;;;;;;;;0.96;69.25;98743.00;5082744;28;19924;-56
2023/03/28 05:34:47;;;;;;;;;;;;;;;0.97;69.14;98754.53;5085241;28;20016;-57
2023/03/28 05:37:15;;;;;;;;;;;;;;;0.91;69.59;98756.25;5086357;28;19963;-57
2023/03/28 05:39:48;;;;;;;;;;;;;;;0.99;68.93;98761.25;5087035;28;19931;-58
2023/03/28 05:42:16;;;;;;;;;;;;;;;1.08;69.08;98766.31;5083576;28;19978;-57
2023/03/28 05:44:44;;;;;;;;;;;;;;;1.15;68.83;98778.53;5090729;28;19928;-58
2023/03/28 05:47:38;;;;;;;;;;;;;;;1.13;68.43;98769.94;5089118;28;19928;-57
2023/03/28 05:50:08;;;;;;;;;;;;;;;1.15;68.21;98775.84;5090811;28;19924;-57
2023/03/28 05:52:36;;;;;;;;;;;;;;;1.25;68.69;98777.97;5104416;28;20022;-57
2023/03/28 05:55:06;;;;;;;;;;;;;;;1.29;68.32;98773.81;5092715;28;20408;-60
2023/03/28 05:57:35;;;;;;;;;;;;;;;1.34;67.89;98781.97;5086126;28;19978;-58
2023/03/28 06:00:12;;;;;;;;;;;;;;;1.36;67.46;98785.22;5086217;28;19950;-61
2023/03/28 06:02:51;;;;;;;;;;;;;;;1.28;67.63;98790.91;5089951;28;19924;-58
2023/03/28 06:05:26;;;;;;;;;;;;;;;1.46;66.95;98800.72;5088552;28;19977;-57
2023/03/28 06:07:55;;;;;;;;;;;;;;;1.42;67.25;98802.22;5088108;28;19943;-58
2023/03/28 06:10:24;;;;;;;;;;;;;;;1.54;66.91;98795.00;5081382;28;19941;-57
2023/03/28 06:13:05;;;;;;;;;;;;;;;1.69;66.83;98805.28;5092806;28;19924;-60
2023/03/28 06:15:50;;;;;;;;;;;;;;;1.55;66.62;98808.19;5069474;28;20343;-57
2023/03/28 06:18:27;;;;;;;;;;;;;;;1.68;66.53;98809.00;5090570;28;19928;-58
2023/03/28 06:20:56;;;;;;;;;;;;;;;1.67;66.35;98808.19;5092207;28;20285;-57
2023/03/28 06:23:24;;;;;;;;;;;;;;;1.74;66.28;98811.56;5092960;28;19946;-57
2023/03/28 06:25:52;;;;;;;;;;;;;;;1.79;66.21;98821.59;5084562;28;19931;-57
2023/03/28 06:28:21;;;;;;;;;;;;;;;1.96;65.47;98824.41;5091291;28;20026;-57
2023/03/28 06:31:06;;;;;;;;;;;;;;;2.10;65.07;98818.56;5098306;28;20384;-57
2023/03/28 06:33:35;;;;;;;;;;;;;;;2.12;64.68;98828.25;5102162;28;20293;-57
2023/03/28 06:36:05;;;;;;;;;;;;;;;2.18;64.36;98828.09;5087939;28;19928;-56
2023/03/28 06:38:36;;;;;;;;;;;;;;;2.07;64.47;98840.47;5109013;28;19931;-59
2023/03/28 06:41:05;;;;;;;;;;;;;;;2.06;64.35;98838.84;5094053;28;19924;-56
2023/03/28 06:43:35;;;;;;;;;;;;;;;2.08;64.53;98835.94;5104887;28;20350;-58
2023/03/28 06:46:06;;;;;;;;;;;;;;;2.25;64.06;98846.78;5088369;28;19970;-57
2023/03/28 06:48:37;;;;;;;;;;;;;;;2.33;63.55;98859.81;5090562;28;20536;-57
2023/03/28 06:51:24;;;;;;;;;;;;;;;2.53;63.05;98856.75;5093964;28;20278;-58
2023/03/28 06:53:52;;;;;;;;;;;;;;;2.59;62.53;98862.00;5091970;28;19932;-57
2023/03/28 06:56:24;;;;;;;;;;;;;;;2.68;62.92;98861.66;5092468;28;19924;-57
2023/03/28 06:58:54;;;;;;;;;;;;;;;2.74;62.30;98861.50;5087041;28;20301;-58
2023/03/28 07:01:25;;;;;;;;;;;;;;;2.71;62.25;98855.78;5081825;28;19967;-56
2023/03/28 07:04:14;;;;;;;;;;;;;;;2.61;62.21;98861.78;5086680;28;19931;-57
2023/03/28 07:06:45;;;;;;;;;;;;;;;2.63;62.04;98865.03;5091182;28;19971;-58
2023/03/28 07:09:13;;;;;;;;;;;;;;;2.86;62.48;98867.66;5107743;28;19977;-57
2023/03/28 07:11:56;;;;;;;;;;;;;;;2.89;61.92;98858.31;5091653;28;19928;-56
2023/03/28 07:14:24;;;;;;;;;;;;;;;2.97;61.30;98862.50;5091201;28;19967;-57
2023/03/28 07:17:01;;;;;;;;;;;;;;;3.10;60.97;98865.72;5086218;28;20427;-57
2023/03/28 07:19:28;;;;;;;;;;;;;;;3.02;61.21;98860.72;5091135;28;19955;-57
2023/03/28 07:21:58;;;;;;;;;;;;;;;2.92;60.36;98857.81;5091385;28;19932;-57
2023/03/28 07:24:26;;;;;;;;;;;;;;;3.08;60.25;98862.44;5089590;28;20297;-58
2023/03/28 07:27:08;;;;;;;;;;;;;;;3.05;60.15;98868.31;5088315;28;19936;-58
2023/03/28 07:29:42;;;;;;;;;;;;;;;2.90;60.20;98868.00;5091565;28;19986;-57
2023/03/28 07:32:11;;;;;;;;;;;;;;;2.63;60.25;98879.25;5084793;28;19924;-57
2023/03/28 07:34:44;;;;;;;;;;;;;;;2.76;60.92;98896.16;5092804;28;20011;-62
2023/03/28 07:37:19;;;;;;;;;;;;;;;2.78;60.41;98889.50;5089161;28;19928;-58
2023/03/28 07:40:09;;;;;;;;;;;;;;;2.87;59.95;98906.03;5108583;27;20007;-57
2023/03/28 07:42:39;;;;;;;;;;;;;;;2.98;60.05;98902.50;5102471;27;19924;-58
2023/03/28 07:45:08;;;;;;;;;;;;;;;3.13;59.32;98897.44;5078305;28;19995;-57
2023/03/28 07:47:38;;;;;;;;;;;;;;;3.10;59.08;98908.69;5084733;28;20454;-58
2023/03/28 07:50:06;;;;;;;;;;;;;;;3.00;59.07;98919.22;5090899;28;19924;-58
2023/03/28 07:52:36;;;;;;;;;;;;;;;3.12;59.21;98911.13;5088825;28;19939;-58
2023/03/28 07:55:04;;;;;;;;;;;;;;;3.22;59.13;98910.50;5091092;28;19934;-58
2023/03/28 07:57:37;;;;;;;;;;;;;;;3.27;58.19;98902.56;5105468;28;19924;-58
2023/03/28 08:00:32;;;;;;;;;;;;;;;3.42;58.23;98906.34;5085472;28;19923;-58
2023/03/28 08:03:22;;;;;;;;;;;;;;;3.31;57.19;98917.13;5065954;28;20026;-57
2023/03/28 08:05:51;;;;;;;;;;;;;;;3.40;57.12;98915.69;5092147;28;19989;-58
2023/03/28 08:08:22;;;;;;;;;;;;;;;3.24;56.87;98937.94;5094871;28;19924;-57
2023/03/28 08:11:06;;;;;;;;;;;;;;;3.47;56.67;98929.81;5096480;28;20308;-57
2023/03/28 08:13:34;;;;;;;;;;;;;;;3.56;57.45;98922.97;5106541;28;19928;-58
2023/03/28 08:16:07;;;;;;;;;;;;;;;3.55;57.16;98929.41;5082833;28;19924;-58
2023/03/28 08:18:39;;;;;;;;;;;;;;;3.54;56.94;98930.47;5086738;28;19924;-57
2023/03/28 08:21:07;;;;;;;;;;;;;;;3.77;56.99;98931.41;5090096;28;19930;-58
2023/03/28 08:23:36;;;;;;;;;;;;;;;3.85;55.79;98931.00;5103996;28;19928;-57
2023/03/28 08:26:21;;;;;;;;;;;;;;;3.60;55.09;98937.56;5090806;28;19928;-57
2023/03/28 08:28:54;;;;;;;;;;;;;;;3.60;55.63;98934.06;5089559;28;20396;-57
2023/03/28 08:31:23;;;;;;;;;;;;;;;3.58;55.39;98934.31;5085809;28;19924;-57
2023/03/28 08:33:54;;;;;;;;;;;;;;;3.48;55.75;98930.63;5086792;28;19924;-57
2023/03/28 08:36:26;;;;;;;;;;;;;;;3.68;55.17;98936.38;5089123;28;20380;-58
2023/03/28 08:39:00;;;;;;;;;;;;;;;3.65;55.09;98942.22;5086944;28;20333;-57
2023/03/28 08:41:30;;;;;;;;;;;;;;;3.77;54.66;98939.47;5092266;28;19931;-57
2023/03/28 08:44:08;;;;;;;;;;;;;;;4.08;54.14;98936.25;5089371;28;19924;-58
2023/03/28 08:46:36;;;;;;;;;;;;;;;4.27;53.99;98934.13;5083353;28;20436;-58
2023/03/28 08:49:05;;;;;;;;;;;;;;;4.05;54.22;98943.97;5090081;28;19924;-58
2023/03/28 08:51:34;;;;;;;;;;;;;;;3.86;55.23;98938.00;5090003;28;19924;-58
2023/03/28 08:54:06;;;;;;;;;;;;;;;3.85;55.63;98945.28;5089041;28;20344;-58
2023/03/28 08:56:35;;;;;;;;;;;;;;;3.98;55.40;98948.69;5088540;28;20389;-58
2023/03/28 08:59:06;;;;;;;;;;;;;;;4.08;53.21;98952.38;5089723;28;19924;-57
2023/03/28 09:01:35;;;;;;;;;;;;;;;4.16;53.11;98943.91;5083472;28;19925;-58
2023/03/28 09:04:04;;;;;;;;;;;;;;;4.33;52.55;98959.25;5089191;28;19982;-58
2023/03/28 09:06:35;;;;;;;;;;;;;;;4.47;53.51;98955.13;5102087;28;19931;-57
2023/03/28 09:09:10;;;;;;;;;;;;;;;4.45;51.23;98962.66;5089514;28;19928;-58
2023/03/28 09:11:43;;;;;;;;;;;;;;;4.44;48.22;98958.34;5094747;28;20278;-57
2023/03/28 09:14:24;;;;;;;;;;;;;;;4.33;49.01;98951.97;5088481;28;19931;-57
2023/03/28 09:16:55;;;;;;;;;;;;;;;4.47;48.98;98955.13;5084861;28;19932;-58
2023/03/28 09:19:30;;;;;;;;;;;;;;;4.25;48.06;98952.38;5083058;28;19924;-58
2023/03/28 09:22:46;;;;;;;;;;;;;;;4.38;47.11;98962.81;5067949;28;19928;-58
2023/03/28 09:25:22;;;;;;;;;;;;;;;4.40;46.73;98949.13;5089410;28;19946;-57
2023/03/28 09:27:55;;;;;;;;;;;;;;;4.47;46.95;98965.91;5087889;28;20011;-57
2023/03/28 09:30:25;;;;;;;;;;;;;;;4.38;47.05;98951.25;5082249;28;20405;-61
2023/03/28 09:32:54;;;;;;;;;;;;;;;4.41;47.47;98956.13;5089836;28;19932;-58
2023/03/28 09:35:22;;;;;;;;;;;;;;;4.43;47.06;98962.09;5089177;28;19925;-57
2023/03/28 09:37:52;;;;;;;;;;;;;;;4.46;45.65;98965.09;5086725;28;20353;-60
2023/03/28 09:40:24;;;;;;;;;;;;;;;4.46;46.65;98965.09;5091009;28;19976;-58
2023/03/28 09:43:17;;;;;;;;;;;;;;;4.29;44.88;98950.84;5075215;28;19924;-58
2023/03/28 09:46:08;;;;;;;;;;;;;;;4.22;44.69;98954.75;5080658;28;20429;-58
2023/03/28 09:48:39;;;;;;;;;;;;;;;4.23;44.55;98953.69;5092713;28;19924;-58
2023/03/28 09:51:13;;;;;;;;;;;;;;;4.37;43.25;98955.00;5097923;28;19924;-58
2023/03/28 09:53:41;;;;;;;;;;;;;;;4.40;43.25;98954.50;5089064;28;19935;-59
2023/03/28 09:56:13;;;;;;;;;;;;;;;5.09;43.04;98956.81;5093744;28;19924;-58
2023/03/28 09:58:49;;;;;;;;;;;;;;;5.23;42.37;98956.22;5093268;28;19924;-57
2023/03/28 10:01:27;;;;;;;;;;;;;;;4.85;42.09;98957.06;5089519;28;19928;-57
2023/03/28 10:04:35;;;;;;;;;;;;;;;5.57;41.97;98953.34;5079416;28;20408;-58
2023/03/28 10:07:32;;;;;;;;;;;;;;;5.41;41.38;98948.84;5090308;28;19956;-58
2023/03/28 10:10:20;;;;;;;;;;;;;;;5.67;41.81;98952.66;5110188;28;19924;-58
2023/03/28 10:12:57;;;;;;;;;;;;;;;5.58;40.61;98952.28;5096841;28;19925;-58
2023/03/28 10:15:30;;;;;;;;;;;;;;;5.40;41.47;98955.31;5073814;28;19928;-58
2023/03/28 10:18:17;;;;;;;;;;;;;;;5.26;42.69;98952.19;5089871;28;19965;-58
2023/03/28 10:20:48;;;;;;;;;;;;;;;5.18;43.38;98963.41;5091305;28;19932;-58
2023/03/28 10:23:16;;;;;;;;;;;;;;;5.17;42.63;98959.91;5093915;28;19991;-58
2023/03/28 10:25:45;;;;;;;;;;;;;;;5.49;42.08;98961.91;5090605;28;20011;-58
2023/03/28 10:28:16;;;;;;;;;;;;;;;5.66;41.73;98957.22;5093150;28;19924;-58
2023/03/28 10:30:45;;;;;;;;;;;;;;;5.53;41.32;98963.81;5102044;27;19935;-58
2023/03/28 10:33:21;;;;;;;;;;;;;;;5.46;40.70;98949.72;5091186;28;20350;-58
2023/03/28 10:36:11;;;;;;;;;;;;;;;5.48;41.43;98960.25;5090352;28;19931;-58
2023/03/28 10:38:45;;;;;;;;;;;;;;;5.49;41.18;98959.22;5108240;28;19924;-59
2023/03/28 10:41:19;;;;;;;;;;;;;;;5.39;42.25;98967.16;5095997;28;19924;-63
2023/03/28 10:44:18;;;;;;;;;;;;;;;5.33;41.57;98969.00;5087208;28;19965;-57
2023/03/28 10:46:52;;;;;;;;;;;;;;;5.61;42.35;98964.44;5089131;28;19934;-58
2023/03/28 10:49:43;;;;;;;;;;;;;;;5.58;42.23;98965.75;5088456;28;20050;-57
2023/03/28 10:52:17;;;;;;;;;;;;;;;5.47;42.09;98961.31;5108729;28;19924;-59
2023/03/28 10:54:47;;;;;;;;;;;;;;;5.71;42.48;98972.66;5083540;28;19932;-58
2023/03/28 10:57:37;;;;;;;;;;;;;;;5.42;41.83;98970.16;5088396;28;20010;-60
2023/03/28 11:00:09;;;;;;;;;;;;;;;5.56;42.19;98970.59;5085194;28;19931;-62
2023/03/28 11:02:43;;;;;;;;;;;;;;;5.65;43.08;98966.41;5086728;28;19924;-58
2023/03/28 11:05:22;;;;;;;;;;;;;;;5.97;42.80;98966.47;5105380;28;19936;-57
2023/03/28 11:07:51;;;;;;;;;;;;;;;5.98;42.83;98968.09;5108810;28;19928;-58
2023/03/28 11:10:43;;;;;;;;;;;;;;;5.72;42.48;98963.50;5080259;28;20023;-57
2023/03/28 11:13:28;;;;;;;;;;;;;;;6.20;42.14;98961.81;5088541;28;19963;-58
2023/03/28 11:15:58;;;;;;;;;;;;;;;6.03;40.95;98956.56;5097878;28;19932;-60
2023/03/28 11:18:37;;;;;;;;;;;;;;;6.19;41.11;98960.19;5086495;28;19946;-57
2023/03/28 11:21:15;;;;;;;;;;;;;;;5.92;39.77;98949.44;5088085;28;20427;-58
2023/03/28 11:23:47;;;;;;;;;;;;;;;5.73;41.28;98952.44;5082430;28;19924;-57
2023/03/28 11:26:44;;;;;;;;;;;;;;;5.41;41.74;98959.63;5087195;28;19954;-58
2023/03/28 11:29:32;;;;;;;;;;;;;;;5.16;42.43;98958.25;5086606;28;19946;-57
2023/03/28 11:32:14;;;;;;;;;;;;;;;5.24;43.07;98960.53;5085852;28;19941;-57
2023/03/28 11:34:45;;;;;;;;;;;;;;;5.38;43.32;98952.03;5088308;28;19960;-58
2023/03/28 11:37:16;;;;;;;;;;;;;;;5.43;41.82;98946.72;5090429;28;19973;-57
2023/03/28 11:39:45;;;;;;;;;;;;;;;5.91;42.92;98939.66;5084858;28;19924;-57
2023/03/28 11:42:23;;;;;;;;;;;;;;;6.32;41.79;98938.16;5090512;28;19953;-57
2023/03/28 11:44:54;;;;;;;;;;;;;;;6.69;41.87;98930.06;5087012;28;19928;-57
2023/03/28 11:47:24;;;;;;;;;;;;;;;6.58;39.56;98931.06;5102841;28;19924;-57
2023/03/28 11:50:01;;;;;;;;;;;;;;;6.73;38.62;98928.47;5090984;28;19932;-62
2023/03/28 11:52:49;;;;;;;;;;;;;;;6.80;38.87;98933.63;5091918;28;19942;-57
2023/03/28 11:55:19;;;;;;;;;;;;;;;6.23;39.29;98921.66;5090740;28;19935;-57
2023/03/28 11:57:51;;;;;;;;;;;;;;;5.95;39.21;98920.06;5073995;28;20029;-57
2023/03/28 12:00:21;;;;;;;;;;;;;;;5.72;38.91;98918.47;5086469;28;20396;-57
2023/03/28 12:03:09;;;;;;;;;;;;;;;5.56;39.45;98914.00;5085532;28;19967;-57
2023/03/28 12:05:41;;;;;;;;;;;;;;;6.00;39.47;98913.88;5088896;28;19935;-58
2023/03/28 12:08:12;;;;;;;;;;;;;;;6.55;39.10;98909.97;5088960;28;20432;-59
2023/03/28 12:10:42;;;;;;;;;;;;;;;7.08;38.60;98908.09;5089850;28;19924;-58
2023/03/28 12:13:23;;;;;;;;;;;;;;;7.50;38.24;98912.56;5090410;28;19924;-58
2023/03/28 12:16:02;;;;;;;;;;;;;;;7.52;36.18;98905.00;5079885;28;19928;-58
2023/03/28 12:18:34;;;;;;;;;;;;;;;7.46;35.68;98901.50;5089215;28;20301;-58
2023/03/28 12:21:06;;;;;;;;;;;;;;;7.85;36.15;98898.31;5089303;28;19924;-58
2023/03/28 12:23:41;;;;;;;;;;;;;;;8.06;35.15;98901.84;5091535;28;19932;-58
2023/03/28 12:26:30;;;;;;;;;;;;;;;7.48;35.46;98901.22;5084528;28;19953;-62
2023/03/28 12:29:02;;;;;;;;;;;;;;;7.19;36.28;98903.53;5090319;28;20037;-58
2023/03/28 12:31:31;;;;;;;;;;;;;;;6.87;36.42;98909.06;5085244;28;20321;-58
2023/03/28 12:34:11;;;;;;;;;;;;;;;6.77;37.20;98905.25;5091140;28;19924;-58
2023/03/28 12:37:00;;;;;;;;;;;;;;;6.64;37.47;98904.91;5090206;28;19932;-59
2023/03/28 12:39:33;;;;;;;;;;;;;;;6.60;38.15;98896.50;5074020;28;19931;-58
2023/03/28 12:42:07;;;;;;;;;;;;;;;6.93;37.14;98905.34;5086050;28;19924;-59
2023/03/28 12:44:39;;;;;;;;;;;;;;;6.94;37.12;98890.75;5089932;28;19924;-58
2023/03/28 12:47:07;;;;;;;;;;;;;;;7.27;37.31;98901.16;5082481;28;19924;-59
2023/03/28 12:49:41;;;;;;;;;;;;;;;7.37;36.83;98891.44;5091395;28;19951;-58
2023/03/28 12:52:12;;;;;;;;;;;;;;;7.40;37.05;98893.59;5089636;28;19928;-58
2023/03/28 12:54:53;;;;;;;;;;;;;;;7.39;36.25;98889.28;5089359;28;19963;-58
2023/03/28 12:57:38;;;;;;;;;;;;;;;7.37;36.71;98883.34;5086836;28;19924;-58
2023/03/28 13:00:26;;;;;;;;;;;;;;;7.22;36.27;98893.03;5084149;28;19924;-57
2023/03/28 13:03:15;;;;;;;;;;;;;;;7.45;36.66;98880.09;5091809;28;19977;-58
2023/03/28 13:05:46;;;;;;;;;;;;;;;7.28;36.74;98894.66;5081924;28;19924;-58
2023/03/28 13:08:16;;;;;;;;;;;;;;;6.94;37.64;98885.34;5089527;28;19931;-59
2023/03/28 13:10:45;;;;;;;;;;;;;;;6.79;37.88;98884.19;5091188;28;19930;-58
2023/03/28 13:13:16;;;;;;;;;;;;;;;6.46;37.34;98876.47;5085916;28;19928;-58
2023/03/28 13:16:05;;;;;;;;;;;;;;;6.76;37.68;98882.00;5084314;28;19924;-60
2023/03/28 13:18:33;;;;;;;;;;;;;;;6.56;38.38;98881.94;5083199;28;19936;-57
2023/03/28 13:21:04;;;;;;;;;;;;;;;6.59;38.51;98878.69;5087384;28;19936;-57
2023/03/28 13:23:36;;;;;;;;;;;;;;;6.28;38.21;98873.13;5086261;28;19924;-58
2023/03/28 13:26:06;;;;;;;;;;;;;;;6.70;38.08;98874.16;5089874;28;19924;-58
2023/03/28 13:28:37;;;;;;;;;;;;;;;6.94;38.74;98872.66;5089319;28;19924;-58
2023/03/28 13:31:08;;;;;;;;;;;;;;;7.13;36.91;98878.38;5084063;28;19928;-58
2023/03/28 13:33:44;;;;;;;;;;;;;;;7.00;36.47;98868.09;5087170;28;19981;-58
2023/03/28 13:36:24;;;;;;;;;;;;;;;6.69;37.03;98862.53;5087295;28;19958;-58